Time;durP1;ratioP1;P1;durP2;ratioP2;P2;SDS_P1;SDS_P2;PMS_P1;PMS_P2;Temp;Humidity;BMP_temperature;BMP_pressure;BME280_temperature;BME280_humidity;BME280_pressure;Samples;Min_cycle;Max_cycle;Signal;HPM_P1;HPM_P2
2021/03/05 00:01:55;;;;;;;4.30;1.13;;;;;;;30.32;29.87;98368.44;5032239;28;20254;-72
2021/03/05 00:04:21;;;;;;;4.22;1.02;;;;;;;30.11;30.21;98371.44;5032635;28;20220;-71
2021/03/05 00:06:47;;;;;;;3.25;1.15;;;;;;;31.18;29.48;98378.00;5032393;28;20602;-72
2021/03/05 00:09:13;;;;;;;7.22;1.10;;;;;;;30.61;29.49;98382.47;5032468;28;20207;-72
2021/03/05 00:11:39;;;;;;;5.65;1.27;;;;;;;29.95;30.48;98391.59;5032424;28;20221;-73
2021/03/05 00:14:06;;;;;;;5.80;1.05;;;;;;;30.03;30.46;98392.19;5032579;28;20242;-72
2021/03/05 00:16:32;;;;;;;4.95;1.08;;;;;;;30.90;29.34;98391.84;5032177;28;20211;-72
2021/03/05 00:18:59;;;;;;;7.15;1.00;;;;;;;30.27;30.11;98393.34;5032634;28;20277;-71
2021/03/05 00:21:25;;;;;;;5.82;1.08;;;;;;;29.83;30.80;98396.81;5032482;28;20250;-72
2021/03/05 00:23:51;;;;;;;3.70;1.10;;;;;;;31.17;29.20;98407.91;5033029;28;20247;-73
2021/03/05 00:26:17;;;;;;;4.50;1.15;;;;;;;30.30;30.13;98397.50;5032533;28;20306;-72
2021/03/05 00:28:43;;;;;;;7.10;1.23;;;;;;;29.85;30.62;98400.13;5032238;28;20208;-73
2021/03/05 00:31:09;;;;;;;2.95;1.10;;;;;;;31.38;28.91;98404.03;5032510;28;20200;-72
2021/03/05 00:33:35;;;;;;;4.43;1.20;;;;;;;30.43;29.79;98402.06;5032015;28;20204;-73
2021/03/05 00:36:02;;;;;;;7.18;1.30;;;;;;;29.97;30.43;98408.38;5032654;28;20270;-72
2021/03/05 00:38:29;;;;;;;2.45;0.88;;;;;;;30.21;30.56;98414.97;5031944;28;20395;-73
2021/03/05 00:40:55;;;;;;;5.82;1.23;;;;;;;30.68;29.36;98414.81;5031538;28;20200;-71
2021/03/05 00:43:21;;;;;;;3.58;1.05;;;;;;;30.10;30.35;98415.63;5032224;28;20204;-72
2021/03/05 00:45:48;;;;;;;3.10;0.90;;;;;;;29.50;31.25;98422.69;5031805;28;20228;-72
2021/03/05 00:48:14;;;;;;;2.25;0.88;;;;;;;31.05;29.25;98425.88;5031608;28;20204;-73
2021/03/05 00:50:40;;;;;;;1.92;0.95;;;;;;;30.06;30.56;98423.28;5031806;28;20192;-71
2021/03/05 00:53:07;;;;;;;4.57;1.35;;;;;;;29.79;30.86;98427.91;5030786;28;20200;-73
2021/03/05 00:55:33;;;;;;;2.95;0.88;;;;;;;31.29;28.96;98435.91;5031907;28;20224;-73
2021/03/05 00:58:00;;;;;;;3.03;1.10;;;;;;;30.22;30.12;98433.63;5031662;28;20272;-73
2021/03/05 01:00:26;;;;;;;4.90;1.10;;;;;;;29.85;30.50;98437.84;5031706;28;20387;-73
2021/03/05 01:02:52;;;;;;;1.83;0.88;;;;;;;30.56;29.71;98437.09;5031608;28;20204;-73
2021/03/05 01:05:19;;;;;;;5.85;0.98;;;;;;;30.63;29.50;98437.88;5031046;28;20258;-72
2021/03/05 01:07:45;;;;;;;1.95;0.80;;;;;;;30.07;30.37;98441.13;5031677;28;20262;-73
2021/03/05 01:10:13;;;;;;;1.63;0.80;;;;;;;29.58;31.03;98443.22;5031602;28;20215;-73
2021/03/05 01:12:39;;;;;;;2.20;0.90;;;;;;;30.90;28.84;98450.44;5031084;28;20207;-71
2021/03/05 01:15:07;;;;;;;2.65;0.93;;;;;;;30.07;30.42;98452.75;5031296;28;20410;-73
2021/03/05 01:17:33;;;;;;;2.38;1.13;;;;;;;29.53;31.20;98451.91;5031151;28;20208;-73
2021/03/05 01:20:00;;;;;;;1.52;1.00;;;;;;;31.18;28.79;98450.91;5032001;28;20203;-71
2021/03/05 01:22:26;;;;;;;4.47;1.35;;;;;;;30.24;30.04;98453.16;5031355;28;20204;-72
2021/03/05 01:24:52;;;;;;;4.43;1.02;;;;;;;29.79;30.69;98457.53;5031651;28;20228;-72
2021/03/05 01:27:19;;;;;;;1.85;0.77;;;;;;;30.90;29.60;98461.22;5031690;28;20218;-73
2021/03/05 01:29:45;;;;;;;3.80;1.10;;;;;;;30.36;29.76;98463.25;5031304;28;20665;-73
2021/03/05 01:32:11;;;;;;;2.17;1.05;;;;;;;29.87;30.77;98460.84;5031730;28;20329;-72
2021/03/05 01:34:37;;;;;;;3.20;1.05;;;;;;;29.77;31.05;98460.44;5031360;28;20655;-73
2021/03/05 01:37:03;;;;;;;1.88;0.95;;;;;;;30.44;29.73;98472.00;5030707;28;20212;-72
2021/03/05 01:39:29;;;;;;;1.70;0.80;;;;;;;29.96;30.73;98466.03;5030752;28;20294;-73
2021/03/05 01:41:55;;;;;;;2.55;1.05;;;;;;;29.61;31.01;98468.91;5031165;28;20204;-72
2021/03/05 01:44:22;;;;;;;3.55;1.20;;;;;;;31.12;29.38;98476.09;5030515;28;20354;-72
2021/03/05 01:46:48;;;;;;;1.65;0.80;;;;;;;29.96;30.61;98472.28;5031140;28;20210;-72
2021/03/05 01:49:15;;;;;;;3.83;1.25;;;;;;;29.63;31.08;98467.69;5030994;28;20208;-72
2021/03/05 01:51:41;;;;;;;6.90;1.50;;;;;;;31.02;29.19;98474.91;5030621;28;20617;-72
2021/03/05 01:54:08;;;;;;;2.05;0.90;;;;;;;30.33;29.93;98472.63;5031130;28;20228;-73
2021/03/05 01:59:56;;;;;;;3.80;0.98;;;;;;;29.26;31.38;98471.75;5030919;28;20594;-73
2021/03/05 02:02:23;;;;;;;2.30;1.08;;;;;;;28.94;32.14;98472.28;5031045;28;20204;-73
2021/03/05 02:04:50;;;;;;;2.65;0.90;;;;;;;28.82;32.45;98465.81;5031910;28;20227;-73
2021/03/05 02:07:16;;;;;;;3.10;1.25;;;;;;;31.86;27.66;98475.59;5034995;28;20234;-72
2021/03/05 02:09:42;;;;;;;2.88;1.40;;;;;;;30.70;29.70;98472.94;5034882;28;20296;-66
2021/03/05 02:12:09;;;;;;;3.40;1.20;;;;;;;30.22;30.15;98476.78;5034938;28;20220;-63
2021/03/05 02:14:35;;;;;;;2.90;1.00;;;;;;;31.20;29.12;98472.31;5034986;28;20303;-64
2021/03/05 02:17:12;;;;;;;4.78;1.42;;;;;;;30.55;29.78;98477.78;5034314;28;20211;-64
2021/03/05 02:20:03;;;;;;;2.45;1.00;;;;;;;30.06;30.15;98472.66;5034801;28;20230;-64
2021/03/05 02:22:47;;;;;;;1.83;1.10;;;;;;;31.12;29.03;98478.78;5035316;28;20519;-66
2021/03/05 02:25:50;;;;;;;3.70;1.00;;;;;;;30.41;29.70;98477.81;5034011;28;20223;-64
2021/03/05 02:28:41;;;;;;;1.88;0.82;;;;;;;29.83;30.60;98481.19;5034275;28;20194;-66
2021/03/05 02:31:19;;;;;;;2.70;1.02;;;;;;;31.32;28.19;98485.94;5034125;28;20622;-65
2021/03/05 02:33:50;;;;;;;1.33;0.88;;;;;;;30.34;29.95;98484.22;5034376;28;20231;-63
2021/03/05 02:36:27;;;;;;;1.50;1.10;;;;;;;29.96;30.59;98492.97;5034238;28;20197;-64
2021/03/05 02:39:01;;;;;;;4.35;1.33;;;;;;;31.39;28.99;98494.00;5034437;28;20269;-64
2021/03/05 02:41:30;;;;;;;5.25;1.30;;;;;;;30.41;29.85;98495.84;5034384;28;20274;-61
2021/03/05 02:43:58;;;;;;;3.30;1.20;;;;;;;29.84;30.32;98501.72;5033839;28;20715;-62
2021/03/05 02:46:27;;;;;;;2.00;1.15;;;;;;;30.37;29.89;98494.63;5034099;28;20630;-63
2021/03/05 02:48:59;;;;;;;2.45;1.00;;;;;;;30.70;29.77;98504.50;5034214;28;20204;-65
2021/03/05 02:51:30;;;;;;;4.85;1.40;;;;;;;29.99;30.37;98500.66;5033735;28;20600;-64
2021/03/05 02:53:59;;;;;;;2.65;1.00;;;;;;;29.73;31.20;98496.06;5033785;28;20255;-63
2021/03/05 02:56:27;;;;;;;3.22;1.33;;;;;;;30.74;29.40;98511.13;5033952;28;20520;-64
2021/03/05 02:58:54;;;;;;;3.15;1.20;;;;;;;30.10;30.46;98510.81;5033726;28;20196;-64
2021/03/05 03:01:24;;;;;;;2.47;1.10;;;;;;;29.78;30.82;98512.47;5033883;28;20222;-64
2021/03/05 03:03:53;;;;;;;3.65;0.88;;;;;;;31.23;28.65;98520.50;5033433;28;20267;-63
2021/03/05 03:06:20;;;;;;;3.05;1.50;;;;;;;30.32;29.94;98524.06;5033537;28;20259;-66
2021/03/05 03:08:47;;;;;;;3.00;1.30;;;;;;;29.77;30.96;98530.50;5034004;28;20259;-64
2021/03/05 03:11:14;;;;;;;3.80;1.10;;;;;;;31.20;29.06;98525.50;5033779;28;20207;-62
2021/03/05 03:13:41;;;;;;;2.15;1.00;;;;;;;30.58;29.51;98529.44;5034082;28;20227;-63
2021/03/05 03:16:09;;;;;;;4.22;1.40;;;;;;;30.00;30.41;98526.59;5032659;28;20211;-64
2021/03/05 03:18:39;;;;;;;2.45;1.20;;;;;;;30.27;30.49;98525.50;5033651;28;20270;-62
2021/03/05 03:21:07;;;;;;;2.33;1.10;;;;;;;30.69;29.55;98529.81;5033779;28;20212;-64
2021/03/05 03:23:34;;;;;;;3.33;1.40;;;;;;;30.06;30.46;98528.44;5033289;28;20215;-64
2021/03/05 03:26:00;;;;;;;1.85;1.30;;;;;;;29.72;30.84;98532.97;5033237;28;20232;-62
2021/03/05 03:28:26;;;;;;;2.45;1.30;;;;;;;31.14;29.25;98549.63;5033911;28;20574;-64
2021/03/05 03:30:53;;;;;;;2.08;0.90;;;;;;;30.15;30.35;98551.47;5033590;28;20590;-64
2021/03/05 03:33:20;;;;;;;4.10;1.48;;;;;;;29.86;30.64;98553.53;5033330;28;20211;-64
2021/03/05 03:35:47;;;;;;;2.40;1.23;;;;;;;31.35;28.56;98548.47;5033349;28;20303;-65
2021/03/05 03:38:14;;;;;;;1.55;0.80;;;;;;;30.33;30.07;98558.09;5033716;28;20272;-64
2021/03/05 03:40:42;;;;;;;3.05;1.40;;;;;;;29.80;30.50;98548.97;5033310;28;20208;-65
2021/03/05 03:43:08;;;;;;;3.50;1.10;;;;;;;30.94;29.48;98554.25;5033436;28;20223;-66
2021/03/05 03:45:37;;;;;;;2.33;1.17;;;;;;;30.66;29.18;98558.09;5032882;28;20239;-66
2021/03/05 03:48:05;;;;;;;4.35;1.70;;;;;;;30.10;30.23;98559.34;5033286;28;20200;-65
2021/03/05 03:50:34;;;;;;;2.75;1.40;;;;;;;29.79;30.80;98560.78;5032781;28;20290;-65
2021/03/05 03:53:05;;;;;;;4.95;1.13;;;;;;;30.60;29.76;98564.31;5033078;28;20212;-64
2021/03/05 03:55:32;;;;;;;1.65;1.10;;;;;;;30.01;30.13;98565.97;5032942;28;20564;-65
2021/03/05 03:57:59;;;;;;;2.20;1.10;;;;;;;29.64;30.94;98563.63;5032799;28;20200;-66
2021/03/05 04:00:26;;;;;;;8.02;1.00;;;;;;;31.08;28.64;98561.28;5032444;28;20215;-64
2021/03/05 04:02:54;;;;;;;1.90;1.13;;;;;;;30.20;29.88;98570.53;5033108;28;20270;-65
2021/03/05 04:05:23;;;;;;;3.30;1.13;;;;;;;29.68;30.77;98564.06;5032801;28;20227;-65
2021/03/05 04:07:50;;;;;;;2.33;1.10;;;;;;;31.16;29.06;98573.75;5033024;28;20204;-65
2021/03/05 04:10:18;;;;;;;2.58;1.30;;;;;;;29.79;30.85;98568.84;5032614;28;20570;-63
2021/03/05 04:12:46;;;;;;;1.55;1.20;;;;;;;29.29;31.46;98569.13;5032816;28;20222;-64
2021/03/05 04:15:13;;;;;;;3.58;1.10;;;;;;;29.89;30.80;98569.31;5032706;28;20293;-62
2021/03/05 04:17:39;;;;;;;3.17;1.10;;;;;;;31.43;29.15;98579.00;5032664;28;20210;-63
2021/03/05 04:20:07;;;;;;;3.28;1.10;;;;;;;30.22;30.12;98573.84;5032263;28;20254;-64
2021/03/05 04:22:34;;;;;;;3.53;1.15;;;;;;;30.08;30.37;98577.63;5032328;28;20184;-64
2021/03/05 04:25:00;;;;;;;2.90;1.23;;;;;;;31.27;29.33;98581.16;5032546;28;20232;-64
2021/03/05 04:27:26;;;;;;;1.73;1.17;;;;;;;30.37;29.79;98575.56;5032124;28;20210;-64
2021/03/05 04:29:53;;;;;;;2.25;1.05;;;;;;;29.95;30.23;98581.13;5033225;28;20208;-64
2021/03/05 04:32:19;;;;;;;3.30;1.30;;;;;;;30.51;29.70;98582.59;5032459;28;20204;-64
2021/03/05 04:34:45;;;;;;;2.05;1.10;;;;;;;30.07;30.23;98576.75;5032134;28;20246;-63
2021/03/05 04:37:11;;;;;;;1.45;1.10;;;;;;;28.62;32.75;98585.97;5032129;28;20196;-64
2021/03/05 04:39:38;;;;;;;5.63;1.20;;;;;;;28.13;32.99;98591.16;5032146;28;20208;-64
2021/03/05 04:42:04;;;;;;;2.60;1.10;;;;;;;29.70;31.34;98581.66;5032048;28;20211;-63
2021/03/05 04:44:30;;;;;;;2.55;1.30;;;;;;;31.54;29.06;98578.34;5031605;28;20274;-64
2021/03/05 04:46:57;;;;;;;2.08;1.00;;;;;;;31.48;29.34;98588.13;5031630;28;20720;-62
2021/03/05 04:49:23;;;;;;;2.08;0.95;;;;;;;30.68;29.93;98587.53;5032000;28;20277;-63
2021/03/05 04:51:49;;;;;;;1.30;0.90;;;;;;;30.27;30.28;98587.56;5031885;28;20204;-64
2021/03/05 04:54:15;;;;;;;1.92;1.13;;;;;;;32.40;28.02;98589.59;5031652;28;20635;-64
2021/03/05 04:56:41;;;;;;;4.13;1.20;;;;;;;31.22;29.34;98594.47;5032112;28;20196;-65
2021/03/05 04:59:07;;;;;;;1.98;0.90;;;;;;;30.58;30.19;98605.00;5031936;28;20207;-65
2021/03/05 05:01:33;;;;;;;1.92;1.17;;;;;;;30.88;29.65;98604.53;5031813;28;20204;-64
2021/03/05 05:04:00;;;;;;;2.40;1.02;;;;;;;32.27;28.27;98602.19;5031963;28;20224;-62
2021/03/05 05:06:26;;;;;;;1.60;1.00;;;;;;;31.06;29.41;98600.34;5031401;28;20230;-63
2021/03/05 05:08:52;;;;;;;1.77;0.90;;;;;;;30.61;30.27;98599.19;5032172;28;20200;-63
2021/03/05 05:11:18;;;;;;;1.95;0.90;;;;;;;31.78;29.19;98601.06;5031519;28;20207;-63
2021/03/05 05:13:44;;;;;;;4.18;0.80;;;;;;;31.81;28.94;98608.75;5030955;28;20228;-64
2021/03/05 05:16:11;;;;;;;1.65;1.08;;;;;;;31.10;29.30;98610.50;5031528;28;20200;-63
2021/03/05 05:18:37;;;;;;;3.03;1.00;;;;;;;30.61;30.38;98612.69;5031136;28;20200;-62
2021/03/05 05:21:04;;;;;;;2.72;0.93;;;;;;;32.41;27.12;98610.19;5031193;28;20207;-65
2021/03/05 05:23:30;;;;;;;1.48;0.93;;;;;;;31.47;28.85;98620.75;5031342;28;20273;-64
2021/03/05 05:25:56;;;;;;;1.75;0.95;;;;;;;30.94;29.77;98619.03;5030982;28;20231;-64
2021/03/05 05:28:22;;;;;;;1.80;1.00;;;;;;;30.74;29.75;98624.47;5031487;28;20310;-63
2021/03/05 05:30:48;;;;;;;1.85;0.80;;;;;;;32.49;27.39;98614.50;5031363;28;20192;-64
2021/03/05 05:33:16;;;;;;;2.28;1.00;;;;;;;31.29;29.08;98622.31;5031201;28;20212;-64
2021/03/05 05:35:42;;;;;;;1.30;0.93;;;;;;;30.18;30.50;98623.88;5031250;28;20733;-63
2021/03/05 05:38:10;;;;;;;1.80;1.10;;;;;;;30.16;30.91;98620.56;5030980;28;20208;-65
2021/03/05 05:40:36;;;;;;;2.03;1.00;;;;;;;31.21;29.42;98625.25;5034119;28;20204;-64
2021/03/05 05:43:02;;;;;;;2.58;1.05;;;;;;;32.57;26.98;98623.16;5035609;28;20203;-64
2021/03/05 05:45:28;;;;;;;8.70;1.10;;;;;;;32.02;27.82;98629.19;5034998;28;20342;-64
2021/03/05 05:47:57;;;;;;;1.33;0.80;;;;;;;31.07;29.74;98626.31;5035021;28;20265;-65
2021/03/05 05:50:24;;;;;;;1.83;0.90;;;;;;;31.03;29.93;98635.88;5034777;28;20208;-65
2021/03/05 05:52:54;;;;;;;4.50;1.00;;;;;;;32.00;27.58;98630.47;5034803;28;20621;-65
2021/03/05 05:55:22;;;;;;;2.15;0.90;;;;;;;32.53;27.45;98637.38;5034901;28;20707;-64
2021/03/05 05:57:48;;;;;;;2.25;1.20;;;;;;;31.42;29.14;98634.09;5035643;28;20207;-65
2021/03/05 06:00:15;;;;;;;1.27;0.77;;;;;;;30.98;29.40;98642.75;5035325;28;20211;-64
2021/03/05 06:02:43;;;;;;;2.33;1.00;;;;;;;31.68;28.50;98641.28;5035610;28;20208;-65
2021/03/05 06:05:10;;;;;;;1.90;0.77;;;;;;;32.82;27.55;98652.94;5034541;28;20235;-65
2021/03/05 06:07:37;;;;;;;1.73;0.80;;;;;;;31.55;28.26;98644.88;5034979;28;20238;-65
2021/03/05 06:10:04;;;;;;;3.47;0.90;;;;;;;30.97;29.36;98659.97;5034967;28;20199;-70
2021/03/05 06:12:31;;;;;;;2.25;0.98;;;;;;;31.64;28.36;98657.09;5034672;28;20266;-64
2021/03/05 06:14:57;;;;;;;1.73;0.90;;;;;;;32.88;26.64;98667.47;5034884;28;20227;-64
2021/03/05 06:17:40;;;;;;;1.95;0.95;;;;;;;31.38;28.43;98659.84;5034806;28;20270;-64
2021/03/05 06:20:07;;;;;;;1.35;0.77;;;;;;;31.02;28.86;98663.94;5034457;28;20199;-63
2021/03/05 06:22:33;;;;;;;1.23;0.80;;;;;;;31.33;29.07;98661.34;5035420;28;20199;-64
2021/03/05 06:25:00;;;;;;;2.85;1.23;;;;;;;32.34;27.95;98671.66;5034140;28;20227;-64
2021/03/05 06:27:30;;;;;;;6.80;1.35;;;;;;;30.91;30.16;98674.31;5034361;28;20212;-64
2021/03/05 06:29:57;;;;;;;7.32;1.52;;;;;;;30.88;29.36;98682.00;5035029;28;20188;-72
2021/03/05 06:32:35;;;;;;;9.48;1.67;;;;;;;30.35;30.06;98678.22;5034101;28;20211;-71
2021/03/05 06:35:01;;;;;;;7.43;1.60;;;;;;;29.99;30.70;98670.50;5034516;28;20224;-73
2021/03/05 06:37:40;;;;;;;6.65;1.73;;;;;;;29.55;31.35;98682.56;5034478;28;20290;-72
2021/03/05 06:40:09;;;;;;;3.53;1.35;;;;;;;31.34;28.76;98699.97;5034177;28;20194;-71
2021/03/05 06:42:48;;;;;;;22.48;3.15;;;;;;;32.75;28.01;98698.22;5033854;28;20251;-73
2021/03/05 06:45:17;;;;;;;17.90;3.47;;;;;;;31.40;29.36;98709.13;5034205;28;20239;-72
2021/03/05 06:48:08;;;;;;;18.95;2.53;;;;;;;31.24;28.67;98703.13;5034378;28;20200;-73
2021/03/05 06:50:36;;;;;;;21.48;3.45;;;;;;;32.40;27.22;98705.97;5018781;28;20243;-72
2021/03/05 06:53:19;;;;;;;19.48;2.67;;;;;;;32.25;28.54;98711.69;5034807;28;20192;-70
2021/03/05 06:55:45;;;;;;;17.20;2.70;;;;;;;31.41;28.92;98716.19;5034437;28;20295;-67
2021/03/05 06:58:12;;;;;;;9.98;2.45;;;;;;;31.16;29.14;98714.19;5034045;28;20309;-70
2021/03/05 07:00:39;;;;;;;13.68;2.25;;;;;;;33.09;27.12;98722.28;5034047;28;20188;-70
2021/03/05 07:03:18;;;;;;;9.98;2.15;;;;;;;31.66;28.23;98725.28;5033889;28;20208;-66
2021/03/05 07:05:49;;;;;;;12.57;2.17;;;;;;;31.54;28.87;98726.97;5033830;28;20278;-69
2021/03/05 07:08:15;;;;;;;11.32;1.92;;;;;;;32.14;28.65;98726.72;5033948;28;20295;-64
2021/03/05 07:10:41;;;;;;;10.57;1.88;;;;;;;32.73;27.11;98735.50;5034483;28;20297;-68
2021/03/05 07:13:07;;;;;;;10.45;2.00;;;;;;;32.17;27.78;98730.88;5033703;28;20320;-67
2021/03/05 07:15:54;;;;;;;6.70;2.00;;;;;;;31.21;29.17;98738.69;5033591;28;20702;-66
2021/03/05 07:18:20;;;;;;;9.20;1.63;;;;;;;32.01;28.49;98741.13;5033376;28;20478;-67
2021/03/05 07:20:47;;;;;;;11.25;2.05;;;;;;;33.07;28.34;98743.34;5034012;28;20208;-68
2021/03/05 07:23:14;;;;;;;10.88;2.50;;;;;;;31.78;28.64;98741.66;5034182;28;20183;-64
2021/03/05 07:25:41;;;;;;;9.43;2.20;;;;;;;31.29;29.73;98751.97;5034349;28;20255;-66
2021/03/05 07:28:13;;;;;;;9.05;2.28;;;;;;;32.00;29.34;98754.88;5040011;28;20668;-66
2021/03/05 07:30:39;;;;;;;9.60;2.22;;;;;;;33.01;26.39;98762.16;5037383;28;20677;-64
2021/03/05 07:33:14;;;;;;;8.93;2.00;;;;;;;31.82;28.24;98760.97;5035655;28;20210;-65
2021/03/05 07:35:41;;;;;;;6.55;2.35;;;;;;;31.25;28.46;98756.13;5038453;28;20709;-66
2021/03/05 07:38:13;;;;;;;7.57;2.13;;;;;;;30.57;29.79;98759.84;5039900;28;20211;-64
2021/03/05 07:40:44;;;;;;;10.07;2.05;;;;;;;31.02;29.02;98767.38;5039615;28;20331;-65
2021/03/05 07:43:11;;;;;;;4.68;1.90;;;;;;;32.59;27.68;98774.53;5038408;28;20241;-65
2021/03/05 07:45:37;;;;;;;7.55;2.40;;;;;;;33.25;26.38;98780.53;5038812;28;20337;-59
2021/03/05 07:48:11;;;;;;;6.57;1.73;;;;;;;33.42;25.29;98780.75;5033810;28;20326;-64
2021/03/05 07:50:38;;;;;;;7.30;2.10;;;;;;;32.25;27.25;98782.03;5033277;28;20271;-65
2021/03/05 07:53:05;;;;;;;4.93;1.67;;;;;;;31.79;27.32;98791.16;5033857;28;20560;-63
2021/03/05 07:55:36;;;;;;;8.27;1.80;;;;;;;32.36;27.42;98789.47;5034129;28;20239;-65
2021/03/05 07:58:02;;;;;;;5.50;1.70;;;;;;;33.33;25.68;98793.78;5033447;28;20204;-62
2021/03/05 08:00:47;;;;;;;20.15;2.72;;;;;;;31.99;27.73;98788.38;5033206;28;20220;-74
2021/03/05 08:03:17;;;;;;;4.95;1.90;;;;;;;31.82;26.95;98793.44;5032893;28;20275;-75
2021/03/05 08:05:46;;;;;;;8.63;2.15;;;;;;;32.38;27.06;98795.50;5033490;28;20263;-74
2021/03/05 08:08:20;;;;;;;9.98;3.20;;;;;;;33.17;24.66;98803.31;5033342;28;20255;-75
2021/03/05 08:10:49;;;;;;;9.30;3.10;;;;;;;32.06;25.97;98800.00;5033221;28;20192;-72
2021/03/05 08:13:46;;;;;;;9.68;2.67;;;;;;;31.11;28.56;98803.09;5034142;28;20659;-74
2021/03/05 08:16:38;;;;;;;5.75;2.30;;;;;;;30.95;28.98;98805.16;5033549;28;20190;-71
2021/03/05 08:19:41;;;;;;;4.72;2.10;;;;;;;30.87;29.08;98809.91;5033231;28;20280;-71
2021/03/05 08:22:08;;;;;;;5.72;2.00;;;;;;;32.18;27.29;98819.13;5033098;28;20303;-75
2021/03/05 08:24:39;;;;;;;6.10;1.73;;;;;;;33.12;27.27;98812.06;5032662;28;20311;-72
2021/03/05 08:27:06;;;;;;;6.03;1.58;;;;;;;33.50;26.41;98821.94;5032943;28;20581;-74
2021/03/05 08:30:04;;;;;;;6.53;1.83;;;;;;;33.92;25.34;98819.47;5032885;28;20275;-73
2021/03/05 08:32:56;;;;;;;5.43;1.80;;;;;;;34.07;25.00;98826.38;5032196;28;20215;-73
2021/03/05 08:35:46;;;;;;;7.57;2.65;;;;;;;32.72;27.33;98823.19;5032727;28;20375;-74
2021/03/05 08:38:15;;;;;;;9.10;2.20;;;;;;;32.33;27.78;98822.38;5032146;28;20274;-72
2021/03/05 08:41:07;;;;;;;7.15;1.85;;;;;;;33.61;25.56;98825.81;5033280;28;20219;-73
2021/03/05 08:43:36;;;;;;;7.00;1.65;;;;;;;34.44;25.02;98838.03;5030048;28;20200;-70
2021/03/05 08:46:04;;;;;;;6.60;1.98;;;;;;;33.60;25.69;98837.72;5032926;28;20240;-73
2021/03/05 08:48:36;;;;;;;6.20;1.70;;;;;;;32.64;27.34;98834.28;5033520;28;20242;-69
2021/03/05 08:51:06;;;;;;;7.72;1.98;;;;;;;32.18;27.74;98835.34;5033018;28;20219;-73
2021/03/05 08:53:38;;;;;;;6.38;1.88;;;;;;;33.01;26.37;98839.88;5032579;28;20204;-72
2021/03/05 08:56:04;;;;;;;4.25;1.60;;;;;;;34.20;26.05;98842.47;5032531;28;20219;-74
2021/03/05 08:58:31;;;;;;;3.00;1.48;;;;;;;34.47;24.55;98853.03;5032584;28;20188;-74
2021/03/05 09:00:57;;;;;;;4.75;1.50;;;;;;;33.18;26.23;98849.16;5032761;28;20195;-71
2021/03/05 09:03:23;;;;;;;4.95;1.58;;;;;;;32.39;26.90;98854.00;5032175;28;20232;-73
2021/03/05 09:05:51;;;;;;;12.98;1.42;;;;;;;31.77;28.81;98850.03;5032348;28;20263;-70
2021/03/05 09:08:21;;;;;;;4.25;1.67;;;;;;;33.29;26.20;98852.19;5032622;28;20243;-75
2021/03/05 09:10:51;;;;;;;3.40;1.33;;;;;;;33.81;26.56;98855.47;5032676;28;20212;-73
2021/03/05 09:13:22;;;;;;;8.48;2.70;;;;;;;32.52;27.38;98858.50;5032845;28;20249;-72
2021/03/05 09:15:50;;;;;;;9.63;2.80;;;;;;;31.92;28.60;98862.22;5031240;28;20315;-71
2021/03/05 09:18:19;;;;;;;9.80;3.28;;;;;;;32.77;27.84;98855.88;5032158;28;20247;-70
2021/03/05 09:20:47;;;;;;;8.35;3.08;;;;;;;33.60;26.16;98859.41;5031999;28;20278;-70
2021/03/05 09:23:22;;;;;;;6.63;2.65;;;;;;;33.22;27.21;98864.97;5031946;28;20203;-70
2021/03/05 09:25:51;;;;;;;8.80;2.50;;;;;;;32.25;27.94;98868.63;5032254;28;20281;-68
2021/03/05 09:28:19;;;;;;;7.90;2.92;;;;;;;31.89;28.63;98867.25;5032640;28;20267;-73
2021/03/05 09:30:53;;;;;;;5.35;2.08;;;;;;;33.06;26.88;98869.84;5032708;28;20188;-72
2021/03/05 09:33:27;;;;;;;8.40;2.30;;;;;;;33.55;26.71;98876.34;5034472;28;20184;-71
2021/03/05 09:36:07;;;;;;;5.03;2.15;;;;;;;32.53;27.78;98865.56;5033954;28;20592;-74
2021/03/05 09:38:35;;;;;;;10.25;2.67;;;;;;;31.89;28.12;98861.84;5033918;28;20192;-72
2021/03/05 09:41:17;;;;;;;5.95;2.70;;;;;;;31.33;28.88;98860.44;5032744;28;20272;-72
2021/03/05 09:43:56;;;;;;;13.48;4.93;;;;;;;30.87;29.49;98867.44;5032588;28;20184;-72
2021/03/05 09:46:23;;;;;;;23.75;8.18;;;;;;;30.44;29.86;98874.00;5032702;28;20208;-72
2021/03/05 09:48:51;;;;;;;22.75;7.88;;;;;;;31.85;27.76;98871.41;5031842;28;20191;-73
2021/03/05 09:51:18;;;;;;;20.85;7.15;;;;;;;32.72;26.52;98874.66;5031260;28;20231;-72
2021/03/05 09:53:53;;;;;;;23.65;7.25;;;;;;;33.45;26.72;98884.16;5031237;28;20291;-72
2021/03/05 09:56:21;;;;;;;18.92;6.55;;;;;;;32.36;27.67;98886.91;5031683;28;20217;-71
2021/03/05 09:58:58;;;;;;;19.67;6.07;;;;;;;31.54;29.03;98890.00;5031323;28;20277;-70
2021/03/05 10:01:27;;;;;;;17.70;6.40;;;;;;;31.57;28.00;98887.91;5031241;28;20219;-72
2021/03/05 10:03:54;;;;;;;17.75;6.13;;;;;;;32.95;26.93;98884.91;5031090;28;20718;-73
2021/03/05 10:06:21;;;;;;;16.92;5.68;;;;;;;33.59;26.45;98889.44;5031887;28;20230;-72
2021/03/05 10:08:58;;;;;;;20.52;5.60;;;;;;;32.51;27.22;98886.63;5032271;28;20290;-71
2021/03/05 10:11:32;;;;;;;19.27;6.22;;;;;;;31.72;28.91;98897.44;5032332;28;20206;-70
2021/03/05 10:13:59;;;;;;;33.28;4.72;;;;;;;32.15;27.92;98889.88;5031725;28;20220;-70
2021/03/05 10:16:27;;;;;;;15.27;5.32;;;;;;;33.49;26.69;98895.38;5031264;28;20200;-73
2021/03/05 10:18:56;;;;;;;10.55;4.20;;;;;;;33.41;25.62;98888.38;5031263;28;20246;-72
2021/03/05 10:21:23;;;;;;;13.90;4.80;;;;;;;32.25;27.39;98891.09;5031299;28;20247;-72
2021/03/05 10:23:50;;;;;;;16.23;4.68;;;;;;;31.84;28.78;98894.09;5031391;28;20266;-70
2021/03/05 10:26:18;;;;;;;13.00;4.38;;;;;;;33.41;26.16;98901.06;5033102;28;20789;-71
2021/03/05 10:28:47;;;;;;;14.23;4.50;;;;;;;33.75;26.13;98902.47;5035052;28;20216;-71
2021/03/05 10:31:13;;;;;;;10.13;3.97;;;;;;;32.40;27.30;98898.94;5035201;28;20586;-70
2021/03/05 10:33:42;;;;;;;12.20;4.10;;;;;;;31.79;28.18;98910.13;5035399;28;20219;-72
2021/03/05 10:36:09;;;;;;;10.25;3.92;;;;;;;32.68;26.81;98911.34;5035304;28;20203;-70
2021/03/05 10:38:36;;;;;;;10.38;3.65;;;;;;;33.71;26.57;98912.94;5037672;28;20203;-72
2021/03/05 10:41:04;;;;;;;10.13;3.88;;;;;;;32.60;27.29;98922.38;5044054;28;20207;-71
2021/03/05 10:43:30;;;;;;;9.75;3.53;;;;;;;31.91;28.33;98919.25;5048233;28;20262;-70
2021/03/05 10:45:57;;;;;;;10.90;3.80;;;;;;;32.22;28.43;98923.97;5043574;28;20705;-73
2021/03/05 10:48:23;;;;;;;11.63;3.70;;;;;;;33.67;25.52;98921.72;5043791;28;20212;-71
2021/03/05 10:50:50;;;;;;;10.05;3.33;;;;;;;32.78;26.43;98932.53;5043800;28;20195;-74
2021/03/05 10:53:16;;;;;;;11.00;4.00;;;;;;;31.88;28.39;98933.19;5040996;28;20208;-73
2021/03/05 10:55:42;;;;;;;9.38;3.20;;;;;;;31.97;28.57;98931.91;5034947;28;20231;-73
2021/03/05 10:58:08;;;;;;;7.88;3.28;;;;;;;33.73;25.55;98934.41;5034856;28;20192;-73
2021/03/05 11:00:34;;;;;;;10.32;2.95;;;;;;;33.03;26.84;98935.31;5034608;28;20275;-72
2021/03/05 11:03:02;;;;;;;9.40;3.17;;;;;;;32.15;27.96;98944.00;5033866;28;20664;-72
2021/03/05 11:05:28;;;;;;;11.00;3.63;;;;;;;31.91;28.08;98938.19;5033970;28;20605;-72
2021/03/05 11:07:54;;;;;;;6.90;2.78;;;;;;;33.33;26.34;98945.56;5034310;28;20686;-73
2021/03/05 11:10:22;;;;;;;9.02;3.25;;;;;;;33.26;27.07;98936.63;5034036;28;20208;-71
2021/03/05 11:12:49;;;;;;;22.95;3.95;;;;;;;32.07;27.36;98942.34;5034032;28;20204;-74
2021/03/05 11:15:17;;;;;;;6.50;2.60;;;;;;;31.34;28.62;98948.56;5034333;28;20234;-74
2021/03/05 11:17:44;;;;;;;9.98;3.08;;;;;;;32.14;28.30;98947.72;5033815;28;20290;-74
2021/03/05 11:20:13;;;;;;;9.52;2.65;;;;;;;33.19;26.18;98951.06;5034274;28;20204;-75
2021/03/05 11:22:39;;;;;;;11.32;2.85;;;;;;;32.45;26.94;98955.97;5035140;28;20279;-74
2021/03/05 11:25:06;;;;;;;16.48;2.90;;;;;;;31.84;28.97;98950.88;5033807;28;20315;-73
2021/03/05 11:27:34;;;;;;;6.47;2.45;;;;;;;31.59;28.82;98954.19;5034459;28;20231;-70
2021/03/05 11:30:00;;;;;;;5.88;2.25;;;;;;;33.39;26.38;98952.78;5033992;28;20257;-69
2021/03/05 11:32:26;;;;;;;7.45;2.42;;;;;;;33.58;26.68;98961.03;5033877;28;20266;-72
2021/03/05 11:34:52;;;;;;;8.10;2.72;;;;;;;32.46;27.30;98954.94;5033551;28;20290;-72
2021/03/05 11:37:20;;;;;;;9.60;2.33;;;;;;;31.95;28.29;98960.22;5033095;28;20202;-72
2021/03/05 11:39:46;;;;;;;8.57;2.53;;;;;;;32.60;27.13;98971.94;5033463;28;20283;-72
2021/03/05 11:42:12;;;;;;;6.55;2.10;;;;;;;34.06;25.64;98966.66;5033875;28;20306;-72
2021/03/05 11:44:38;;;;;;;6.00;2.75;;;;;;;33.26;26.51;98972.72;5033513;28;20227;-76